This is the latest recevied weather packets stored in our database for station/object SQ9IWE-13. If no packets are shown the sender has not sent any weather packets the latest 10 day(s).
| Time | Temp. | Humidity | Pressure | Rain* | Wind** | Luminosity | Snow |
|---|---|---|---|---|---|---|---|
| 1777638600 | 22.22° C | 38% | 1024.5 hPa | - | - | - | - |
| 1777638000 | 21.67° C | 39% | 1024.6 hPa | - | - | - | - |
| 1777636200 | 24.44° C | 36% | 1024.9 hPa | - | - | - | - |
| 1777635600 | 23.33° C | 38% | 1024.9 hPa | - | - | - | - |
| 1777635001 | 22.78° C | 37% | 1025.1 hPa | - | - | - | - |
| 1777634401 | 23.89° C | 36% | 1025 hPa | - | - | - | - |
| 1777633801 | 23.89° C | 36% | 1025.2 hPa | - | - | - | - |
| 1777633201 | 22.22° C | 38% | 1025.2 hPa | - | - | - | - |
| 1777632601 | 24.44° C | 36% | 1025.3 hPa | - | - | - | - |
| 1777632001 | 23.89° C | 36% | 1025.4 hPa | - | - | - | - |
| 1777631401 | 25° C | 35% | 1025.4 hPa | - | - | - | - |
| 1777630801 | 24.44° C | 37% | 1025.5 hPa | - | - | - | - |
| 1777630201 | 23.33° C | 38% | 1025.5 hPa | - | - | - | - |
| 1777629601 | 23.33° C | 38% | 1025.5 hPa | - | - | - | - |
| 1777629001 | 23.89° C | 37% | 1025.7 hPa | - | - | - | - |
| 1777628401 | 23.89° C | 36% | 1025.8 hPa | - | - | - | - |
| 1777627801 | 23.89° C | 37% | 1026 hPa | - | - | - | - |
| 1777627201 | 23.89° C | 37% | 1026.1 hPa | - | - | - | - |
| 1777626601 | 21.67° C | 39% | 1026 hPa | - | - | - | - |
| 1777626001 | 22.22° C | 38% | 1026.2 hPa | - | - | - | - |
| 1777625401 | 20.56° C | 40% | 1026.2 hPa | - | - | - | - |
| 1777624801 | 22.22° C | 39% | 1026.2 hPa | - | - | - | - |
| 1777624201 | 20.56° C | 40% | 1026.4 hPa | - | - | - | - |
| 1777623601 | 20° C | 42% | 1026.4 hPa | - | - | - | - |
| 1777623001 | 19.44° C | 44% | 1026.5 hPa | - | - | - | - |
* Rain since midnight (hover to see other rain measurements)
** Current wind speed in m/s (hover to see current wind gust speed)